Time;durP1;ratioP1;P1;durP2;ratioP2;P2;SDS_P1;SDS_P2;PMS_P1;PMS_P2;Temp;Humidity;BMP_temperature;BMP_pressure;BME280_temperature;BME280_humidity;BME280_pressure;Samples;Min_cycle;Max_cycle;Signal;HPM_P1;HPM_P2
2021/04/02 00:00:37;;;;;;;14.00;5.47;;;7.90;74.70;;;;;;5073116;28;20247;-81
2021/04/02 00:03:17;;;;;;;9.98;5.55;;;7.90;74.20;;;;;;5074190;28;20207;-80
2021/04/02 00:05:43;;;;;;;13.40;6.10;;;7.90;74.00;;;;;;5073280;28;20596;-80
2021/04/02 00:08:09;;;;;;;17.13;5.90;;;7.90;74.00;;;;;;5073381;28;20180;-81
2021/04/02 00:10:52;;;;;;;10.98;4.40;;;7.90;74.00;;;;;;5072749;28;20287;-80
2021/04/02 00:13:19;;;;;;;11.63;5.70;;;7.80;74.00;;;;;;5113552;28;20219;-80
2021/04/02 00:15:46;;;;;;;14.43;5.20;;;7.80;74.00;;;;;;5115442;27;20191;-80
2021/04/02 00:18:12;;;;;;;18.17;4.50;;;7.80;74.00;;;;;;5113693;28;20253;-80
2021/04/02 00:20:38;;;;;;;16.55;6.45;;;7.80;73.80;;;;;;5113433;28;20172;-81
2021/04/02 00:23:06;;;;;;;9.65;5.20;;;7.70;73.90;;;;;;5113570;28;20300;-80
2021/04/02 00:25:33;;;;;;;11.18;6.53;;;7.80;73.90;;;;;;5113687;28;20182;-80
2021/04/02 00:27:59;;;;;;;10.30;5.28;;;7.70;74.00;;;;;;5115341;28;20246;-79
2021/04/02 00:30:39;;;;;;;8.97;5.27;;;7.70;73.90;;;;;;5121544;28;20674;-82
2021/04/02 00:33:06;;;;;;;17.10;6.30;;;7.60;74.00;;;;;;5114600;28;20182;-80
2021/04/02 00:35:32;;;;;;;13.27;5.57;;;7.60;73.90;;;;;;5113431;28;20179;-80
2021/04/02 00:37:58;;;;;;;13.00;5.25;;;7.60;74.10;;;;;;5113531;28;20218;-80
2021/04/02 00:40:30;;;;;;;14.75;6.70;;;7.60;73.90;;;;;;5113772;28;20186;-80
2021/04/02 00:42:57;;;;;;;12.05;5.63;;;7.40;74.30;;;;;;5113330;28;20575;-80
2021/04/02 00:45:23;;;;;;;8.88;4.80;;;7.40;74.60;;;;;;5113333;28;20269;-80
2021/04/02 00:47:51;;;;;;;12.43;5.18;;;7.40;74.40;;;;;;5113230;28;20199;-80
2021/04/02 00:50:20;;;;;;;10.43;5.22;;;7.50;74.60;;;;;;5113063;28;20563;-79
2021/04/02 00:52:46;;;;;;;14.23;5.03;;;7.40;74.50;;;;;;5113742;28;20275;-80
2021/04/02 00:55:12;;;;;;;10.43;5.53;;;7.40;74.70;;;;;;5113076;28;20236;-80
2021/04/02 00:57:38;;;;;;;5.72;4.32;;;7.40;74.50;;;;;;5114156;28;20410;-80
2021/04/02 01:00:08;;;;;;;12.95;6.10;;;7.40;74.60;;;;;;5112430;28;20193;-80
2021/04/02 01:02:33;;;;;;;18.50;6.05;;;7.40;74.40;;;;;;5112283;28;20201;-80
2021/04/02 01:05:04;;;;;;;15.27;5.50;;;7.30;74.80;;;;;;5113953;28;20534;-80
2021/04/02 01:07:30;;;;;;;11.30;5.47;;;7.30;74.80;;;;;;5114122;28;20163;-80
2021/04/02 01:09:56;;;;;;;14.80;5.23;;;7.20;74.90;;;;;;5112784;28;20210;-79
2021/04/02 01:12:21;;;;;;;9.77;4.60;;;7.20;74.90;;;;;;5099723;28;20196;-81
2021/04/02 01:14:47;;;;;;;7.77;5.40;;;7.10;75.10;;;;;;5092377;28;20180;-80
2021/04/02 01:17:13;;;;;;;9.57;5.63;;;7.10;75.20;;;;;;5092372;28;20176;-80
2021/04/02 01:19:44;;;;;;;11.10;4.50;;;7.00;75.40;;;;;;5092244;28;20217;-80
2021/04/02 01:22:19;;;;;;;15.80;5.95;;;6.90;75.80;;;;;;5091821;28;20437;-80
2021/04/02 01:25:01;;;;;;;13.77;4.90;;;6.70;76.50;;;;;;5093503;28;20163;-80
2021/04/02 01:28:02;;;;;;;10.25;4.55;;;6.60;76.80;;;;;;5100463;28;20164;-80
2021/04/02 01:30:28;;;;;;;11.85;5.40;;;6.70;76.90;;;;;;5059502;28;20288;-81
2021/04/02 01:32:54;;;;;;;10.77;5.95;;;6.80;76.80;;;;;;5093482;28;20188;-80
2021/04/02 01:35:35;;;;;;;17.45;5.93;;;6.80;76.60;;;;;;5091949;28;20195;-80
2021/04/02 01:38:30;;;;;;;14.07;4.88;;;6.70;76.70;;;;;;5092025;28;20288;-80
2021/04/02 01:40:59;;;;;;;11.07;5.30;;;6.70;76.50;;;;;;5091668;28;20176;-81
2021/04/02 01:43:31;;;;;;;7.45;4.63;;;6.50;76.80;;;;;;5093050;28;20260;-80
2021/04/02 01:45:58;;;;;;;16.17;5.80;;;6.50;77.10;;;;;;5091822;28;20199;-80
2021/04/02 01:48:25;;;;;;;9.40;4.75;;;6.50;77.30;;;;;;5091832;28;20184;-80
2021/04/02 01:50:52;;;;;;;9.80;4.88;;;6.70;77.20;;;;;;5092382;28;20215;-80
2021/04/02 01:53:25;;;;;;;10.80;5.72;;;6.50;77.10;;;;;;5093155;28;20207;-80
2021/04/02 01:55:53;;;;;;;10.68;5.13;;;6.50;77.30;;;;;;5092849;28;20221;-80
2021/04/02 01:58:20;;;;;;;15.45;5.90;;;6.50;77.10;;;;;;5091756;28;20168;-80
2021/04/02 02:00:49;;;;;;;8.48;4.65;;;6.50;77.10;;;;;;5091164;28;20723;-80
2021/04/02 02:03:16;;;;;;;18.13;5.55;;;6.50;77.10;;;;;;5091624;28;20196;-80
2021/04/02 02:05:45;;;;;;;11.05;4.85;;;6.40;77.40;;;;;;5091946;28;20249;-80
2021/04/02 02:08:13;;;;;;;17.98;5.03;;;6.30;77.60;;;;;;5093344;28;20175;-80
2021/04/02 02:10:39;;;;;;;7.82;4.40;;;6.40;77.60;;;;;;5092268;28;20641;-80
2021/04/02 02:13:06;;;;;;;15.00;5.10;;;6.40;77.60;;;;;;5115035;28;20191;-80
2021/04/02 02:15:36;;;;;;;10.77;5.38;;;6.50;77.50;;;;;;5117018;28;20489;-80
2021/04/02 02:18:11;;;;;;;11.52;5.03;;;6.30;77.60;;;;;;5116802;28;20213;-80
2021/04/02 02:20:39;;;;;;;8.90;5.60;;;6.30;78.00;;;;;;5116231;28;20582;-80
2021/04/02 02:23:06;;;;;;;8.90;4.53;;;6.30;77.90;;;;;;5119023;28;20199;-80
2021/04/02 02:25:32;;;;;;;9.68;6.20;;;6.20;78.00;;;;;;5123121;28;20179;-80
2021/04/02 02:27:58;;;;;;;10.60;5.27;;;6.30;78.00;;;;;;5120473;28;20191;-80
2021/04/02 02:30:31;;;;;;;11.70;4.85;;;6.30;77.90;;;;;;5119028;28;20460;-80
2021/04/02 02:32:57;;;;;;;8.27;4.93;;;6.20;78.00;;;;;;5117048;28;20575;-80
2021/04/02 02:35:24;;;;;;;13.13;5.70;;;6.20;78.10;;;;;;5115660;28;20243;-80
2021/04/02 02:37:51;;;;;;;14.32;5.22;;;6.00;78.50;;;;;;5115708;28;20637;-80
2021/04/02 02:40:26;;;;;;;14.57;5.03;;;6.10;78.80;;;;;;5115721;28;20171;-80
2021/04/02 02:42:54;;;;;;;13.98;4.50;;;6.20;78.20;;;;;;5117174;28;20298;-80
2021/04/02 02:45:20;;;;;;;11.13;5.10;;;6.30;78.20;;;;;;5116401;28;20187;-80
2021/04/02 02:47:46;;;;;;;15.98;5.85;;;6.00;78.20;;;;;;5118661;28;20647;-80
2021/04/02 02:50:25;;;;;;;13.80;5.07;;;6.00;78.70;;;;;;5115904;28;20246;-81
2021/04/02 02:52:52;;;;;;;8.77;5.10;;;6.10;78.70;;;;;;5115629;28;20673;-81
2021/04/02 02:55:21;;;;;;;9.25;5.63;;;6.10;78.70;;;;;;5115708;28;20175;-81
2021/04/02 02:57:50;;;;;;;16.48;5.30;;;6.30;78.40;;;;;;5115712;28;20175;-80
2021/04/02 03:00:19;;;;;;;11.98;4.90;;;6.10;78.10;;;;;;5078873;28;20189;-80
2021/04/02 03:02:48;;;;;;;12.13;5.00;;;6.00;78.40;;;;;;5074122;28;20197;-80
2021/04/02 03:05:21;;;;;;;9.30;4.60;;;5.90;78.70;;;;;;5092359;28;20238;-80
2021/04/02 03:07:50;;;;;;;8.68;4.60;;;5.90;78.90;;;;;;5075320;28;20259;-80
2021/04/02 03:10:16;;;;;;;9.32;4.55;;;5.90;78.80;;;;;;5076196;28;20204;-80
2021/04/02 03:12:44;;;;;;;7.93;5.63;;;6.00;78.70;;;;;;5106178;28;20240;-80
2021/04/02 03:15:13;;;;;;;11.68;5.00;;;6.00;78.60;;;;;;5117000;27;20405;-80
2021/04/02 03:17:42;;;;;;;7.97;4.78;;;6.20;78.30;;;;;;5116467;28;20171;-80
2021/04/02 03:20:09;;;;;;;12.32;6.25;;;6.20;78.00;;;;;;5115226;28;20637;-80
2021/04/02 03:22:35;;;;;;;16.77;10.02;;;6.10;77.80;;;;;;5114344;28;20206;-81
2021/04/02 03:25:09;;;;;;;11.27;4.20;;;6.00;77.90;;;;;;5123261;28;20179;-80
2021/04/02 03:27:39;;;;;;;7.45;4.47;;;5.90;78.10;;;;;;5115068;28;20259;-80
2021/04/02 03:30:11;;;;;;;9.82;4.22;;;5.90;78.20;;;;;;5116596;28;20198;-80
2021/04/02 03:32:39;;;;;;;13.05;4.47;;;6.00;77.90;;;;;;5115764;28;20549;-81
2021/04/02 03:35:07;;;;;;;7.63;3.78;;;6.00;77.70;;;;;;5114687;28;20363;-80
2021/04/02 03:37:36;;;;;;;10.48;4.45;;;6.10;77.70;;;;;;5099015;28;20643;-80
2021/04/02 03:40:06;;;;;;;11.90;3.75;;;6.20;77.10;;;;;;5094301;28;20184;-80
2021/04/02 03:42:34;;;;;;;5.68;3.80;;;6.10;76.80;;;;;;5095038;28;20530;-80
2021/04/02 03:45:01;;;;;;;8.38;3.92;;;6.10;76.60;;;;;;5095769;28;20647;-80
2021/04/02 03:47:28;;;;;;;11.95;4.32;;;6.00;76.40;;;;;;5093960;28;20258;-80
2021/04/02 03:49:56;;;;;;;11.93;3.92;;;6.10;76.60;;;;;;5093955;28;20207;-80
2021/04/02 03:52:32;;;;;;;4.53;3.25;;;6.20;76.30;;;;;;5094808;28;20192;-80
2021/04/02 03:55:00;;;;;;;9.45;3.80;;;6.00;76.00;;;;;;5094006;28;20583;-80
2021/04/02 03:57:28;;;;;;;10.77;3.25;;;6.10;76.20;;;;;;5093984;28;20180;-80
2021/04/02 03:59:57;;;;;;;7.25;3.40;;;5.90;76.20;;;;;;5093873;28;20787;-80
2021/04/02 04:02:24;;;;;;;8.00;4.70;;;5.80;76.20;;;;;;5094476;28;20655;-80
2021/04/02 04:04:51;;;;;;;10.73;3.63;;;5.70;76.70;;;;;;5093890;28;20176;-80
2021/04/02 04:07:18;;;;;;;5.85;3.72;;;5.50;77.10;;;;;;5094980;28;20179;-80
2021/04/02 04:09:45;;;;;;;6.72;3.08;;;5.50;77.40;;;;;;5093582;28;20199;-80
2021/04/02 04:12:13;;;;;;;9.88;3.88;;;5.60;77.20;;;;;;5103955;28;20262;-80
2021/04/02 04:14:40;;;;;;;7.82;4.05;;;5.70;77.00;;;;;;5113835;28;20175;-80
2021/04/02 04:17:07;;;;;;;7.30;3.55;;;5.60;76.80;;;;;;5115256;28;20168;-80
2021/04/02 04:19:34;;;;;;;7.50;3.70;;;5.70;76.80;;;;;;5114978;28;20199;-80
2021/04/02 04:22:02;;;;;;;7.55;3.70;;;5.70;76.70;;;;;;5119908;28;20541;-80
2021/04/02 04:24:29;;;;;;;9.23;2.92;;;5.60;76.60;;;;;;5121857;28;20175;-80
2021/04/02 04:26:57;;;;;;;8.15;3.35;;;5.60;76.80;;;;;;5115057;28;20174;-80
2021/04/02 04:29:33;;;;;;;10.02;3.08;;;5.50;77.00;;;;;;5113787;28;20290;-80
2021/04/02 04:32:00;;;;;;;7.95;3.80;;;5.50;77.10;;;;;;5113315;28;20202;-80
2021/04/02 04:34:29;;;;;;;3.15;2.85;;;5.50;77.10;;;;;;5112915;28;20175;-80
2021/04/02 04:36:57;;;;;;;4.93;2.63;;;5.60;77.00;;;;;;5115100;27;20618;-80
2021/04/02 04:39:24;;;;;;;11.15;3.65;;;5.70;76.80;;;;;;5113414;28;20561;-79
2021/04/02 04:41:53;;;;;;;6.03;2.90;;;5.70;76.60;;;;;;5114415;28;20563;-80
2021/04/02 04:44:21;;;;;;;6.97;3.47;;;5.60;76.50;;;;;;5113722;28;20179;-80
2021/04/02 04:46:47;;;;;;;8.93;3.45;;;5.50;76.80;;;;;;5113630;28;20291;-79
2021/04/02 04:49:13;;;;;;;13.63;6.78;;;5.50;77.10;;;;;;5114530;28;20562;-79
2021/04/02 04:51:40;;;;;;;18.60;6.22;;;5.50;77.30;;;;;;5112770;28;20195;-80
2021/04/02 04:54:07;;;;;;;16.65;7.30;;;5.60;77.30;;;;;;5114510;28;20669;-80
2021/04/02 04:56:36;;;;;;;18.63;8.48;;;5.60;77.20;;;;;;5114616;28;20179;-80
2021/04/02 04:59:05;;;;;;;17.38;8.65;;;5.70;77.30;;;;;;5113162;28;20172;-80
2021/04/02 05:01:43;;;;;;;17.75;7.95;;;5.70;77.30;;;;;;5112828;28;20202;-80
2021/04/02 05:04:10;;;;;;;13.75;7.15;;;5.70;77.30;;;;;;5113561;28;20268;-80
2021/04/02 05:06:39;;;;;;;14.23;8.38;;;5.70;77.50;;;;;;5113574;28;20567;-80
2021/04/02 05:09:05;;;;;;;17.92;7.85;;;5.50;78.50;;;;;;5115444;28;20178;-80
2021/04/02 05:11:34;;;;;;;13.30;7.53;;;5.60;78.10;;;;;;5109211;28;20191;-80
2021/04/02 05:14:01;;;;;;;13.73;7.90;;;5.60;78.30;;;;;;5093560;28;20218;-80
2021/04/02 05:16:28;;;;;;;16.05;7.25;;;5.60;78.50;;;;;;5093876;28;20202;-80
2021/04/02 05:18:56;;;;;;;13.48;6.43;;;5.50;78.80;;;;;;5099203;28;20168;-80
2021/04/02 05:21:22;;;;;;;16.92;6.60;;;5.70;78.70;;;;;;5108932;28;20176;-80
2021/04/02 05:23:48;;;;;;;19.70;6.13;;;5.70;78.60;;;;;;5096645;28;20174;-80
2021/04/02 05:26:15;;;;;;;14.73;7.10;;;5.70;78.60;;;;;;5095256;28;20179;-81
2021/04/02 05:28:41;;;;;;;13.65;7.70;;;5.70;78.60;;;;;;5093598;28;20951;-80
2021/04/02 05:31:08;;;;;;;12.02;6.80;;;5.60;78.80;;;;;;5092591;28;20215;-80
2021/04/02 05:33:33;;;;;;;11.73;6.68;;;5.70;78.80;;;;;;5094350;28;20191;-80
2021/04/02 05:36:00;;;;;;;15.90;8.10;;;5.60;78.80;;;;;;5092622;28;20639;-80
2021/04/02 05:38:25;;;;;;;14.88;7.93;;;5.80;78.70;;;;;;5092440;28;20467;-80
2021/04/02 05:40:51;;;;;;;19.30;8.43;;;5.80;78.50;;;;;;5092842;28;20184;-80
2021/04/02 05:43:28;;;;;;;13.50;7.20;;;5.90;78.40;;;;;;5092367;28;20198;-80
2021/04/02 05:45:56;;;;;;;8.80;6.97;;;5.80;78.20;;;;;;5093186;28;20190;-80
2021/04/02 05:48:24;;;;;;;13.45;6.45;;;5.60;78.50;;;;;;5092053;28;20187;-80
2021/04/02 05:50:54;;;;;;;14.18;7.32;;;5.60;79.10;;;;;;5091303;28;20211;-80
2021/04/02 05:53:21;;;;;;;12.05;6.38;;;5.70;79.10;;;;;;5092109;28;20204;-80
2021/04/02 05:55:49;;;;;;;14.30;6.53;;;5.90;78.80;;;;;;5092076;28;20221;-79
2021/04/02 05:58:14;;;;;;;27.50;6.20;;;6.30;77.90;;;;;;5092192;28;20252;-79
2021/04/02 06:00:40;;;;;;;7.60;5.00;;;7.00;76.40;;;;;;5091584;28;20258;-80
2021/04/02 06:03:07;;;;;;;17.83;5.90;;;7.70;73.80;;;;;;5091898;28;20200;-80
2021/04/02 06:05:34;;;;;;;13.85;6.07;;;8.00;71.40;;;;;;5091175;28;20203;-79
2021/04/02 06:08:00;;;;;;;16.98;5.85;;;8.00;70.20;;;;;;5092776;28;20176;-78
2021/04/02 06:10:27;;;;;;;11.70;5.40;;;8.40;68.90;;;;;;5092496;28;20238;-80
2021/04/02 06:12:55;;;;;;;13.73;6.03;;;8.60;68.40;;;;;;5108199;28;20198;-79
2021/04/02 06:15:22;;;;;;;10.40;4.85;;;9.30;66.70;;;;;;5093486;28;20647;-78
2021/04/02 06:18:03;;;;;;;8.35;5.30;;;9.70;64.90;;;;;;5094178;28;20239;-78
2021/04/02 06:20:50;;;;;;;14.02;6.53;;;9.60;63.30;;;;;;5092201;28;20199;-79
2021/04/02 06:23:19;;;;;;;10.88;5.40;;;9.70;63.70;;;;;;5090562;28;20204;-78
2021/04/02 06:25:50;;;;;;;7.78;4.13;;;9.40;63.70;;;;;;5091503;28;20187;-78
2021/04/02 06:28:27;;;;;;;12.52;5.10;;;9.80;63.20;;;;;;5091098;28;20248;-77
2021/04/02 06:31:08;;;;;;;13.30;5.00;;;9.10;64.00;;;;;;5092279;28;20219;-78
2021/04/02 06:33:37;;;;;;;7.15;4.78;;;8.90;65.10;;;;;;5092498;28;20179;-76
2021/04/02 06:36:11;;;;;;;7.13;4.70;;;9.70;64.50;;;;;;5092424;28;20244;-76
2021/04/02 06:38:40;;;;;;;5.75;4.45;;;9.60;63.20;;;;;;5092501;28;20168;-76
2021/04/02 06:41:06;;;;;;;8.27;4.63;;;9.20;64.20;;;;;;5092333;28;20696;-77
2021/04/02 06:43:43;;;;;;;9.83;4.93;;;8.90;65.30;;;;;;5091186;28;20184;-78
2021/04/02 06:46:14;;;;;;;7.88;4.38;;;8.70;66.30;;;;;;5092172;28;20822;-78
2021/04/02 06:48:41;;;;;;;7.85;3.90;;;8.80;66.90;;;;;;5091960;28;20172;-77
2021/04/02 06:51:14;;;;;;;8.80;4.18;;;8.80;67.00;;;;;;5091581;28;20243;-77
2021/04/02 06:53:48;;;;;;;6.03;4.00;;;8.80;67.00;;;;;;5092208;28;20602;-77
2021/04/02 06:56:15;;;;;;;9.23;3.97;;;8.70;67.50;;;;;;5090876;28;20164;-77
2021/04/02 06:58:42;;;;;;;7.85;4.22;;;8.50;68.00;;;;;;5095511;28;20348;-77
2021/04/02 07:01:09;;;;;;;10.15;4.57;;;8.30;68.70;;;;;;5095170;28;20180;-77
2021/04/02 07:03:35;;;;;;;6.00;3.40;;;8.50;69.00;;;;;;5094872;28;20187;-77
2021/04/02 07:06:04;;;;;;;14.85;4.28;;;8.10;69.70;;;;;;5094936;28;20191;-77
2021/04/02 07:08:32;;;;;;;8.40;5.65;;;7.90;70.30;;;;;;5094812;28;20187;-77
2021/04/02 07:10:58;;;;;;;14.02;5.72;;;7.90;71.10;;;;;;5096230;28;20257;-77
2021/04/02 07:13:25;;;;;;;12.77;5.20;;;7.80;71.50;;;;;;5115093;28;20278;-77
2021/04/02 07:15:52;;;;;;;6.80;4.35;;;7.70;72.20;;;;;;5117505;28;20537;-78
2021/04/02 07:18:18;;;;;;;6.85;4.55;;;7.50;72.40;;;;;;5116278;28;20171;-78
2021/04/02 07:20:45;;;;;;;9.45;5.40;;;7.80;72.60;;;;;;5116038;28;20541;-78
2021/04/02 07:23:14;;;;;;;10.77;5.50;;;7.80;72.40;;;;;;5117124;28;20195;-78
2021/04/02 07:25:40;;;;;;;22.63;4.75;;;7.50;73.10;;;;;;5115723;28;20186;-78
2021/04/02 07:28:06;;;;;;;21.67;5.50;;;7.50;73.00;;;;;;5115019;28;20179;-78
2021/04/02 07:30:33;;;;;;;11.60;4.55;;;7.50;73.20;;;;;;5115506;28;20206;-78
2021/04/02 07:33:02;;;;;;;10.15;5.75;;;7.60;73.20;;;;;;5114134;28;20195;-78
2021/04/02 07:35:28;;;;;;;12.13;5.47;;;7.70;72.80;;;;;;5114359;28;20186;-78
2021/04/02 07:37:56;;;;;;;13.13;5.32;;;7.90;72.10;;;;;;5115816;28;20258;-78
2021/04/02 07:40:28;;;;;;;14.07;6.00;;;7.90;71.70;;;;;;5115380;28;20175;-78
2021/04/02 07:42:57;;;;;;;8.38;4.35;;;7.90;71.50;;;;;;5114100;28;20209;-78
2021/04/02 07:45:26;;;;;;;10.63;5.40;;;8.10;71.40;;;;;;5115632;28;20163;-78
2021/04/02 07:48:09;;;;;;;12.13;4.43;;;8.30;70.90;;;;;;5114045;28;20179;-78
2021/04/02 07:51:01;;;;;;;9.57;4.15;;;8.20;70.20;;;;;;5113348;28;20285;-78
2021/04/02 07:53:27;;;;;;;8.23;4.97;;;8.10;69.80;;;;;;5110153;28;20226;-78
2021/04/02 07:56:03;;;;;;;7.33;4.60;;;8.20;69.80;;;;;;5113917;28;20642;-78
2021/04/02 07:58:32;;;;;;;7.85;3.65;;;8.20;69.30;;;;;;5115302;28;20245;-78
2021/04/02 08:00:59;;;;;;;5.55;3.88;;;8.10;69.20;;;;;;5113158;28;20183;-78
2021/04/02 08:03:27;;;;;;;4.30;3.00;;;7.90;69.10;;;;;;5114864;28;20187;-78
2021/04/02 08:06:02;;;;;;;5.93;3.80;;;7.90;69.20;;;;;;5114885;28;20175;-77
2021/04/02 08:08:42;;;;;;;6.13;2.85;;;8.00;69.30;;;;;;5115930;28;20208;-77
2021/04/02 08:11:25;;;;;;;6.78;2.80;;;8.00;68.70;;;;;;5115073;28;20199;-78
2021/04/02 08:14:05;;;;;;;6.15;3.55;;;8.00;68.00;;;;;;5116675;28;20155;-78
2021/04/02 08:16:31;;;;;;;10.73;3.40;;;8.20;68.00;;;;;;5116662;28;20186;-77
2021/04/02 08:19:04;;;;;;;10.17;3.60;;;8.40;67.40;;;;;;5115582;28;20168;-78
2021/04/02 08:21:32;;;;;;;13.70;3.55;;;8.60;66.80;;;;;;5116495;28;20187;-78
2021/04/02 08:23:58;;;;;;;11.00;3.72;;;8.60;65.90;;;;;;5116909;28;20313;-77
2021/04/02 08:26:35;;;;;;;4.25;3.10;;;8.70;65.60;;;;;;5115074;28;20223;-77
2021/04/02 08:29:02;;;;;;;5.20;2.40;;;8.50;65.00;;;;;;5095124;28;20188;-78
2021/04/02 08:31:28;;;;;;;16.58;2.70;;;8.40;65.10;;;;;;5093663;28;20195;-78
2021/04/02 08:33:55;;;;;;;11.70;3.70;;;8.30;65.00;;;;;;5094096;28;20199;-77
2021/04/02 08:36:25;;;;;;;5.00;2.80;;;8.10;65.90;;;;;;5094335;28;20851;-78
2021/04/02 08:38:53;;;;;;;6.07;2.35;;;8.00;65.80;;;;;;5094396;28;20182;-78
2021/04/02 08:41:21;;;;;;;13.77;4.10;;;8.00;66.20;;;;;;5092719;28;20179;-78
2021/04/02 08:43:47;;;;;;;8.30;3.13;;;8.10;66.60;;;;;;5092909;28;20180;-78
2021/04/02 08:46:14;;;;;;;8.25;3.17;;;8.40;66.40;;;;;;5093762;28;20176;-78
2021/04/02 08:48:44;;;;;;;8.70;2.83;;;8.40;65.70;;;;;;5092516;28;20206;-78
2021/04/02 08:51:18;;;;;;;4.80;2.78;;;8.50;65.20;;;;;;5093464;28;20187;-78
2021/04/02 08:53:44;;;;;;;12.05;2.42;;;8.70;64.40;;;;;;5092269;28;20179;-78
2021/04/02 08:56:18;;;;;;;5.10;2.90;;;8.90;64.00;;;;;;5092398;28;20618;-78
2021/04/02 08:58:46;;;;;;;7.40;2.75;;;9.10;63.30;;;;;;5093410;28;20420;-78
2021/04/02 09:01:14;;;;;;;5.88;2.80;;;9.10;62.50;;;;;;5092946;28;20241;-78
2021/04/02 09:03:40;;;;;;;3.30;2.28;;;9.30;61.80;;;;;;5093435;28;20183;-78
2021/04/02 09:06:07;;;;;;;9.20;2.22;;;9.20;61.40;;;;;;5093302;28;20180;-78
2021/04/02 09:08:35;;;;;;;8.18;3.35;;;8.90;62.00;;;;;;5093716;28;20305;-78
2021/04/02 09:11:01;;;;;;;3.17;2.67;;;8.70;62.40;;;;;;5092955;28;20222;-78
2021/04/02 09:13:35;;;;;;;10.82;3.20;;;8.60;62.70;;;;;;5113375;28;20278;-78
2021/04/02 09:16:09;;;;;;;5.88;2.35;;;8.90;62.40;;;;;;5113598;28;20626;-78
2021/04/02 09:18:47;;;;;;;5.85;2.40;;;8.90;61.80;;;;;;5112292;28;20183;-78
2021/04/02 09:21:13;;;;;;;3.28;1.83;;;9.00;61.20;;;;;;5111086;28;20236;-78
2021/04/02 09:23:40;;;;;;;9.32;3.25;;;9.10;60.50;;;;;;5112172;28;20172;-77
2021/04/02 09:26:09;;;;;;;9.68;4.10;;;9.10;60.40;;;;;;5111954;28;20189;-77
2021/04/02 09:28:37;;;;;;;3.58;1.90;;;9.20;59.70;;;;;;5111938;28;20637;-78
2021/04/02 09:31:18;;;;;;;2.42;2.22;;;9.30;59.10;;;;;;5112752;28;20624;-78
2021/04/02 09:33:45;;;;;;;7.82;2.40;;;9.50;57.70;;;;;;5113771;28;20220;-77
2021/04/02 09:36:13;;;;;;;4.53;2.50;;;9.50;57.00;;;;;;5111881;28;20206;-78
2021/04/02 09:38:40;;;;;;;6.45;3.13;;;9.50;56.60;;;;;;5113235;28;20225;-77
2021/04/02 09:41:06;;;;;;;8.35;2.22;;;9.70;56.10;;;;;;5113438;28;20207;-77
2021/04/02 09:43:53;;;;;;;10.10;2.45;;;9.80;55.60;;;;;;5112629;28;20258;-77
2021/04/02 09:46:34;;;;;;;8.80;2.28;;;9.90;55.60;;;;;;5114203;28;20656;-78
2021/04/02 09:49:21;;;;;;;6.25;3.00;;;9.90;55.50;;;;;;5112023;28;20197;-79
2021/04/02 09:51:49;;;;;;;5.97;3.35;;;10.00;54.80;;;;;;5111586;28;20342;-78
2021/04/02 09:54:16;;;;;;;8.25;2.70;;;10.20;54.40;;;;;;5112583;28;20171;-78
2021/04/02 09:56:43;;;;;;;5.85;2.60;;;10.30;53.80;;;;;;5113267;28;20630;-79
2021/04/02 09:59:09;;;;;;;9.82;2.83;;;10.30;53.20;;;;;;5112365;28;20180;-79
2021/04/02 10:01:36;;;;;;;4.80;3.20;;;10.20;53.00;;;;;;5112597;28;20202;-79
2021/04/02 10:04:03;;;;;;;7.72;3.63;;;10.30;53.10;;;;;;5111704;28;20642;-79
2021/04/02 10:06:29;;;;;;;5.00;2.67;;;10.30;53.40;;;;;;5115088;28;20175;-78
2021/04/02 10:08:55;;;;;;;3.10;2.20;;;10.30;53.30;;;;;;5114552;28;20653;-78
2021/04/02 10:11:22;;;;;;;3.83;2.22;;;10.10;52.80;;;;;;5107117;28;20449;-78
2021/04/02 10:13:48;;;;;;;4.65;2.60;;;10.10;53.10;;;;;;5091377;28;20176;-78
2021/04/02 10:16:14;;;;;;;6.77;3.93;;;10.20;53.20;;;;;;5091458;28;20727;-79
2021/04/02 10:18:40;;;;;;;3.38;2.40;;;10.30;53.40;;;;;;5093284;28;20450;-78
2021/04/02 10:21:07;;;;;;;5.17;3.07;;;10.50;53.20;;;;;;5092209;28;20171;-78
2021/04/02 10:23:34;;;;;;;5.90;2.47;;;10.70;52.40;;;;;;5092819;28;20175;-78
2021/04/02 10:26:00;;;;;;;5.05;2.38;;;10.70;51.90;;;;;;5092681;28;20172;-78
2021/04/02 10:28:26;;;;;;;11.02;2.58;;;10.60;52.20;;;;;;5093309;28;20229;-78
2021/04/02 10:30:52;;;;;;;13.60;2.30;;;10.70;52.30;;;;;;5090899;28;20696;-78
2021/04/02 10:33:18;;;;;;;4.18;2.05;;;10.80;52.80;;;;;;5094433;28;20461;-77
2021/04/02 10:35:45;;;;;;;7.77;3.20;;;10.80;52.80;;;;;;5095273;28;20225;-77
2021/04/02 10:38:11;;;;;;;5.60;2.50;;;11.00;52.90;;;;;;5097526;28;20928;-77
2021/04/02 10:40:38;;;;;;;6.72;2.90;;;10.70;52.50;;;;;;5108817;28;20186;-78
2021/04/02 10:43:05;;;;;;;5.88;2.83;;;10.70;52.70;;;;;;5117616;28;20201;-77
2021/04/02 10:45:31;;;;;;;11.50;2.53;;;10.90;52.30;;;;;;5119540;28;20186;-77
2021/04/02 10:47:57;;;;;;;4.03;2.47;;;11.10;51.40;;;;;;5119798;28;20182;-77
2021/04/02 10:50:24;;;;;;;14.77;3.17;;;10.90;51.00;;;;;;5118790;28;20215;-78
2021/04/02 10:52:51;;;;;;;7.65;2.50;;;10.80;51.20;;;;;;5113075;28;20200;-78
2021/04/02 10:55:17;;;;;;;5.90;3.22;;;10.60;52.00;;;;;;5095667;28;20282;-78
2021/04/02 10:57:43;;;;;;;5.03;3.10;;;10.50;52.70;;;;;;5095645;28;20279;-78
2021/04/02 11:00:12;;;;;;;6.85;3.20;;;10.70;52.30;;;;;;5094969;28;20183;-78
2021/04/02 11:02:38;;;;;;;10.95;2.95;;;10.80;51.90;;;;;;5095785;28;20206;-77
2021/04/02 11:05:06;;;;;;;8.33;3.50;;;11.10;51.80;;;;;;5097640;28;20195;-78
2021/04/02 11:07:31;;;;;;;12.77;3.78;;;11.40;51.40;;;;;;5095072;28;20893;-78
2021/04/02 11:09:57;;;;;;;5.07;3.60;;;11.00;51.30;;;;;;5094480;28;20204;-78
2021/04/02 11:12:28;;;;;;;5.73;2.73;;;11.10;51.60;;;;;;5106459;28;20192;-78
2021/04/02 11:14:58;;;;;;;7.65;3.80;;;11.00;52.00;;;;;;5114913;28;20281;-78
2021/04/02 11:17:25;;;;;;;8.63;3.75;;;11.20;51.80;;;;;;5116621;28;20174;-78
2021/04/02 11:19:52;;;;;;;8.18;3.78;;;11.10;51.80;;;;;;5115939;28;20171;-78
2021/04/02 11:22:19;;;;;;;14.90;3.03;;;11.10;51.50;;;;;;5115590;28;20206;-78
2021/04/02 11:24:45;;;;;;;6.10;2.72;;;10.80;51.80;;;;;;5114902;28;20179;-78
2021/04/02 11:27:10;;;;;;;8.55;3.25;;;10.80;51.80;;;;;;5116180;28;20171;-78
2021/04/02 11:29:40;;;;;;;6.73;2.70;;;10.70;51.70;;;;;;5115049;28;20293;-78
2021/04/02 11:32:07;;;;;;;9.73;4.18;;;11.10;51.20;;;;;;5114116;28;20433;-78
2021/04/02 11:34:33;;;;;;;8.43;3.17;;;11.00;50.80;;;;;;5116450;28;20305;-78
2021/04/02 11:36:59;;;;;;;4.38;3.08;;;11.20;50.50;;;;;;5117573;28;20195;-78
2021/04/02 11:39:26;;;;;;;6.63;3.33;;;11.30;50.70;;;;;;5115349;28;20717;-78
2021/04/02 11:41:52;;;;;;;6.82;3.90;;;11.30;50.40;;;;;;5115980;28;20205;-78
2021/04/02 11:44:18;;;;;;;9.10;3.45;;;11.10;50.10;;;;;;5116053;28;20175;-78
2021/04/02 11:46:43;;;;;;;9.67;4.33;;;10.90;49.90;;;;;;5116775;28;20636;-78
2021/04/02 11:49:09;;;;;;;7.33;3.57;;;10.60;50.40;;;;;;5114700;28;20932;-78
2021/04/02 11:51:36;;;;;;;5.80;3.40;;;10.40;50.70;;;;;;5115494;28;20218;-78
2021/04/02 11:54:02;;;;;;;8.82;4.10;;;10.40;51.30;;;;;;5114612;28;20473;-78
2021/04/02 11:56:28;;;;;;;10.18;4.15;;;10.50;51.70;;;;;;5114167;28;20178;-78
2021/04/02 11:58:54;;;;;;;10.57;3.63;;;10.30;51.90;;;;;;5114512;28;20262;-78
2021/04/02 12:01:21;;;;;;;19.40;4.00;;;10.50;52.00;;;;;;5115648;28;20206;-78
2021/04/02 12:03:47;;;;;;;9.90;4.90;;;10.70;51.80;;;;;;5115838;28;20208;-77
2021/04/02 12:06:12;;;;;;;10.60;4.87;;;10.90;51.50;;;;;;5113745;28;20218;-77
2021/04/02 12:08:38;;;;;;;6.93;4.20;;;10.90;51.30;;;;;;5114836;28;20202;-77
2021/04/02 12:11:04;;;;;;;9.83;4.10;;;10.70;51.10;;;;;;5112807;28;20260;-78
2021/04/02 12:13:30;;;;;;;10.10;5.00;;;10.80;50.80;;;;;;5093277;28;20433;-78
2021/04/02 12:15:55;;;;;;;7.30;4.40;;;10.90;50.80;;;;;;5092918;28;20917;-77
2021/04/02 12:18:22;;;;;;;11.67;5.37;;;10.80;50.30;;;;;;5092974;28;20541;-77
2021/04/02 12:20:48;;;;;;;10.40;6.07;;;10.70;50.30;;;;;;5092539;28;20658;-78
2021/04/02 12:23:14;;;;;;;9.65;5.28;;;10.80;50.20;;;;;;5094442;28;20210;-78
2021/04/02 12:25:40;;;;;;;14.60;5.10;;;10.70;49.90;;;;;;5094273;28;20247;-78
2021/04/02 12:28:06;;;;;;;7.33;5.13;;;10.50;49.40;;;;;;5094196;28;20267;-78
2021/04/02 12:30:32;;;;;;;14.77;5.10;;;10.50;50.20;;;;;;5093647;28;20199;-78
2021/04/02 12:32:57;;;;;;;13.02;5.03;;;10.80;50.30;;;;;;5094166;28;20184;-78
2021/04/02 12:35:23;;;;;;;11.73;4.97;;;10.90;50.00;;;;;;5093038;28;20172;-78
2021/04/02 12:37:49;;;;;;;9.13;4.83;;;11.10;49.90;;;;;;5092633;28;20543;-78
2021/04/02 12:40:17;;;;;;;10.23;3.60;;;11.10;49.20;;;;;;5092614;28;20981;-78
2021/04/02 12:42:43;;;;;;;7.63;4.15;;;11.10;49.00;;;;;;5091935;28;20469;-78
2021/04/02 12:45:11;;;;;;;11.30;4.67;;;11.10;48.70;;;;;;5092560;28;20188;-77
2021/04/02 12:47:38;;;;;;;13.82;5.45;;;10.70;49.10;;;;;;5093637;28;20428;-78
2021/04/02 12:50:21;;;;;;;11.85;4.60;;;10.90;49.20;;;;;;5093441;28;20208;-78
2021/04/02 12:52:47;;;;;;;15.52;4.72;;;10.90;49.50;;;;;;5091732;28;20199;-77
2021/04/02 12:55:21;;;;;;;12.82;5.20;;;11.00;49.10;;;;;;5091628;28;20176;-78
2021/04/02 12:57:47;;;;;;;13.10;4.93;;;11.10;48.90;;;;;;5093194;28;20176;-78